sensor_id;sensor_type;location;lat;lon;timestamp;P1;durP1;ratioP1;P2;durP2;ratioP2
22270;SDS011;11304;53.520;10.104;2023-12-20T00:00:00;11.88;;;3.00;;
22270;SDS011;11304;53.520;10.104;2023-12-20T00:02:26;20.70;;;2.70;;
22270;SDS011;11304;53.520;10.104;2023-12-20T00:04:52;15.48;;;2.67;;
22270;SDS011;11304;53.520;10.104;2023-12-20T00:07:18;18.10;;;2.63;;
22270;SDS011;11304;53.520;10.104;2023-12-20T00:09:44;15.60;;;2.85;;
22270;SDS011;11304;53.520;10.104;2023-12-20T00:12:10;14.35;;;2.83;;
22270;SDS011;11304;53.520;10.104;2023-12-20T00:14:37;16.15;;;2.75;;
22270;SDS011;11304;53.520;10.104;2023-12-20T00:17:03;16.50;;;2.67;;
22270;SDS011;11304;53.520;10.104;2023-12-20T00:19:29;9.68;;;2.47;;
22270;SDS011;11304;53.520;10.104;2023-12-20T00:21:55;19.70;;;2.47;;
22270;SDS011;11304;53.520;10.104;2023-12-20T00:24:21;15.05;;;2.35;;
22270;SDS011;11304;53.520;10.104;2023-12-20T00:26:47;15.18;;;2.55;;
22270;SDS011;11304;53.520;10.104;2023-12-20T00:29:13;13.38;;;1.52;;
22270;SDS011;11304;53.520;10.104;2023-12-20T00:31:39;23.35;;;3.28;;
22270;SDS011;11304;53.520;10.104;2023-12-20T00:34:05;18.13;;;2.67;;
22270;SDS011;11304;53.520;10.104;2023-12-20T00:36:31;12.60;;;2.13;;
22270;SDS011;11304;53.520;10.104;2023-12-20T00:38:57;13.85;;;2.42;;
22270;SDS011;11304;53.520;10.104;2023-12-20T00:41:23;18.02;;;2.35;;
22270;SDS011;11304;53.520;10.104;2023-12-20T00:43:50;18.80;;;2.60;;
22270;SDS011;11304;53.520;10.104;2023-12-20T00:46:16;13.90;;;2.33;;
22270;SDS011;11304;53.520;10.104;2023-12-20T00:48:42;14.20;;;2.30;;
22270;SDS011;11304;53.520;10.104;2023-12-20T00:51:10;11.48;;;2.22;;
22270;SDS011;11304;53.520;10.104;2023-12-20T00:53:36;16.02;;;2.65;;
22270;SDS011;11304;53.520;10.104;2023-12-20T00:56:02;15.20;;;2.47;;
22270;SDS011;11304;53.520;10.104;2023-12-20T00:58:28;17.17;;;2.30;;
22270;SDS011;11304;53.520;10.104;2023-12-20T01:00:55;14.25;;;2.00;;
22270;SDS011;11304;53.520;10.104;2023-12-20T01:03:21;15.57;;;2.65;;
22270;SDS011;11304;53.520;10.104;2023-12-20T01:05:47;15.90;;;2.13;;
22270;SDS011;11304;53.520;10.104;2023-12-20T01:08:13;20.33;;;2.58;;
22270;SDS011;11304;53.520;10.104;2023-12-20T01:10:39;14.35;;;2.90;;
22270;SDS011;11304;53.520;10.104;2023-12-20T01:13:05;14.73;;;2.00;;
22270;SDS011;11304;53.520;10.104;2023-12-20T01:15:31;19.98;;;2.50;;
22270;SDS011;11304;53.520;10.104;2023-12-20T01:17:57;16.92;;;2.33;;
22270;SDS011;11304;53.520;10.104;2023-12-20T01:20:24;13.73;;;2.10;;
22270;SDS011;11304;53.520;10.104;2023-12-20T01:22:50;18.85;;;2.40;;
22270;SDS011;11304;53.520;10.104;2023-12-20T01:25:16;18.05;;;2.50;;
22270;SDS011;11304;53.520;10.104;2023-12-20T01:27:42;15.65;;;2.40;;
22270;SDS011;11304;53.520;10.104;2023-12-20T01:30:08;19.55;;;2.80;;
22270;SDS011;11304;53.520;10.104;2023-12-20T01:32:35;15.95;;;3.28;;
22270;SDS011;11304;53.520;10.104;2023-12-20T01:35:01;15.90;;;2.80;;
22270;SDS011;11304;53.520;10.104;2023-12-20T01:37:27;12.70;;;2.60;;
22270;SDS011;11304;53.520;10.104;2023-12-20T01:39:54;15.75;;;2.35;;
22270;SDS011;11304;53.520;10.104;2023-12-20T01:42:20;16.38;;;2.25;;
22270;SDS011;11304;53.520;10.104;2023-12-20T01:44:47;19.90;;;2.42;;
22270;SDS011;11304;53.520;10.104;2023-12-20T01:47:13;19.30;;;2.60;;
22270;SDS011;11304;53.520;10.104;2023-12-20T01:49:39;20.67;;;2.40;;
22270;SDS011;11304;53.520;10.104;2023-12-20T01:52:06;15.63;;;2.25;;
22270;SDS011;11304;53.520;10.104;2023-12-20T01:54:32;17.10;;;2.60;;
22270;SDS011;11304;53.520;10.104;2023-12-20T01:56:58;15.10;;;2.67;;
22270;SDS011;11304;53.520;10.104;2023-12-20T01:59:24;16.30;;;2.63;;
22270;SDS011;11304;53.520;10.104;2023-12-20T02:01:50;15.02;;;2.47;;
22270;SDS011;11304;53.520;10.104;2023-12-20T02:04:17;11.32;;;2.10;;
22270;SDS011;11304;53.520;10.104;2023-12-20T02:06:43;14.75;;;2.25;;
22270;SDS011;11304;53.520;10.104;2023-12-20T02:09:10;14.90;;;3.00;;
22270;SDS011;11304;53.520;10.104;2023-12-20T02:11:36;16.77;;;2.75;;
22270;SDS011;11304;53.520;10.104;2023-12-20T02:14:02;21.63;;;2.67;;
22270;SDS011;11304;53.520;10.104;2023-12-20T02:16:28;20.25;;;2.75;;
22270;SDS011;11304;53.520;10.104;2023-12-20T02:18:54;18.33;;;2.33;;
22270;SDS011;11304;53.520;10.104;2023-12-20T02:21:24;15.65;;;2.38;;
22270;SDS011;11304;53.520;10.104;2023-12-20T02:23:50;16.65;;;2.42;;
22270;SDS011;11304;53.520;10.104;2023-12-20T02:26:16;18.10;;;2.35;;
22270;SDS011;11304;53.520;10.104;2023-12-20T02:28:43;13.82;;;2.38;;
22270;SDS011;11304;53.520;10.104;2023-12-20T02:31:09;15.00;;;2.53;;
22270;SDS011;11304;53.520;10.104;2023-12-20T02:33:35;18.40;;;2.83;;
22270;SDS011;11304;53.520;10.104;2023-12-20T02:36:01;16.60;;;2.58;;
22270;SDS011;11304;53.520;10.104;2023-12-20T02:38:27;18.88;;;2.25;;
22270;SDS011;11304;53.520;10.104;2023-12-20T02:40:54;14.35;;;2.08;;
22270;SDS011;11304;53.520;10.104;2023-12-20T02:43:20;12.77;;;2.58;;
22270;SDS011;11304;53.520;10.104;2023-12-20T02:45:46;16.27;;;2.45;;
22270;SDS011;11304;53.520;10.104;2023-12-20T02:48:12;20.17;;;2.95;;
22270;SDS011;11304;53.520;10.104;2023-12-20T02:50:38;17.30;;;2.95;;
22270;SDS011;11304;53.520;10.104;2023-12-20T02:53:04;16.10;;;2.35;;
22270;SDS011;11304;53.520;10.104;2023-12-20T02:55:30;17.73;;;2.20;;
22270;SDS011;11304;53.520;10.104;2023-12-20T02:57:56;16.23;;;2.22;;
22270;SDS011;11304;53.520;10.104;2023-12-20T03:00:23;13.15;;;1.92;;
22270;SDS011;11304;53.520;10.104;2023-12-20T03:02:49;15.95;;;3.28;;
22270;SDS011;11304;53.520;10.104;2023-12-20T03:05:15;17.92;;;2.58;;
22270;SDS011;11304;53.520;10.104;2023-12-20T03:07:41;20.83;;;2.85;;
22270;SDS011;11304;53.520;10.104;2023-12-20T03:10:07;17.55;;;3.17;;
22270;SDS011;11304;53.520;10.104;2023-12-20T03:12:34;15.23;;;2.40;;
22270;SDS011;11304;53.520;10.104;2023-12-20T03:15:00;20.10;;;3.00;;
22270;SDS011;11304;53.520;10.104;2023-12-20T03:17:26;22.33;;;3.08;;
22270;SDS011;11304;53.520;10.104;2023-12-20T03:19:52;13.10;;;2.42;;
22270;SDS011;11304;53.520;10.104;2023-12-20T03:22:18;19.05;;;3.00;;
22270;SDS011;11304;53.520;10.104;2023-12-20T03:24:44;10.68;;;2.08;;
22270;SDS011;11304;53.520;10.104;2023-12-20T03:27:10;15.10;;;3.00;;
22270;SDS011;11304;53.520;10.104;2023-12-20T03:29:36;16.05;;;2.45;;
22270;SDS011;11304;53.520;10.104;2023-12-20T03:32:02;14.30;;;2.58;;
22270;SDS011;11304;53.520;10.104;2023-12-20T03:34:29;15.27;;;2.83;;
22270;SDS011;11304;53.520;10.104;2023-12-20T03:36:55;12.10;;;2.45;;
22270;SDS011;11304;53.520;10.104;2023-12-20T03:39:21;11.70;;;1.90;;
22270;SDS011;11304;53.520;10.104;2023-12-20T03:41:47;15.77;;;2.20;;
22270;SDS011;11304;53.520;10.104;2023-12-20T03:44:13;12.05;;;2.35;;
22270;SDS011;11304;53.520;10.104;2023-12-20T03:46:39;15.25;;;2.38;;
22270;SDS011;11304;53.520;10.104;2023-12-20T03:49:05;11.02;;;1.90;;
22270;SDS011;11304;53.520;10.104;2023-12-20T03:51:31;11.82;;;1.60;;
22270;SDS011;11304;53.520;10.104;2023-12-20T03:53:57;13.35;;;2.58;;
22270;SDS011;11304;53.520;10.104;2023-12-20T03:56:23;12.00;;;1.90;;
22270;SDS011;11304;53.520;10.104;2023-12-20T03:58:49;14.60;;;2.33;;
22270;SDS011;11304;53.520;10.104;2023-12-20T04:01:15;10.75;;;2.03;;
22270;SDS011;11304;53.520;10.104;2023-12-20T04:03:41;15.35;;;2.47;;
22270;SDS011;11304;53.520;10.104;2023-12-20T04:06:07;16.98;;;2.28;;
22270;SDS011;11304;53.520;10.104;2023-12-20T04:08:33;15.38;;;2.92;;
22270;SDS011;11304;53.520;10.104;2023-12-20T04:10:59;16.10;;;2.38;;
22270;SDS011;11304;53.520;10.104;2023-12-20T04:13:25;15.10;;;2.33;;
22270;SDS011;11304;53.520;10.104;2023-12-20T04:15:51;15.07;;;2.33;;
22270;SDS011;11304;53.520;10.104;2023-12-20T04:18:17;13.10;;;2.30;;
22270;SDS011;11304;53.520;10.104;2023-12-20T04:20:43;16.60;;;2.25;;
22270;SDS011;11304;53.520;10.104;2023-12-20T04:23:10;11.52;;;2.13;;
22270;SDS011;11304;53.520;10.104;2023-12-20T04:25:36;16.38;;;2.53;;
22270;SDS011;11304;53.520;10.104;2023-12-20T04:28:02;14.05;;;2.35;;
22270;SDS011;11304;53.520;10.104;2023-12-20T04:30:28;8.77;;;2.00;;
22270;SDS011;11304;53.520;10.104;2023-12-20T04:32:54;12.95;;;2.30;;
22270;SDS011;11304;53.520;10.104;2023-12-20T04:35:22;12.68;;;2.63;;
22270;SDS011;11304;53.520;10.104;2023-12-20T04:37:48;16.20;;;2.67;;
22270;SDS011;11304;53.520;10.104;2023-12-20T04:40:14;14.25;;;3.05;;
22270;SDS011;11304;53.520;10.104;2023-12-20T04:42:40;19.63;;;3.03;;
22270;SDS011;11304;53.520;10.104;2023-12-20T04:45:06;24.45;;;3.08;;
22270;SDS011;11304;53.520;10.104;2023-12-20T04:47:32;14.23;;;2.30;;
22270;SDS011;11304;53.520;10.104;2023-12-20T04:49:59;17.95;;;3.50;;
22270;SDS011;11304;53.520;10.104;2023-12-20T04:52:25;21.95;;;2.88;;
22270;SDS011;11304;53.520;10.104;2023-12-20T04:54:51;19.52;;;3.20;;
22270;SDS011;11304;53.520;10.104;2023-12-20T04:57:17;24.33;;;3.28;;
22270;SDS011;11304;53.520;10.104;2023-12-20T04:59:43;13.90;;;2.92;;
22270;SDS011;11304;53.520;10.104;2023-12-20T05:02:09;15.30;;;2.55;;
22270;SDS011;11304;53.520;10.104;2023-12-20T05:04:35;21.42;;;3.20;;
22270;SDS011;11304;53.520;10.104;2023-12-20T05:07:01;21.30;;;3.33;;
22270;SDS011;11304;53.520;10.104;2023-12-20T05:09:29;15.40;;;3.05;;
22270;SDS011;11304;53.520;10.104;2023-12-20T05:11:56;15.43;;;2.65;;
22270;SDS011;11304;53.520;10.104;2023-12-20T05:14:22;14.68;;;2.55;;
22270;SDS011;11304;53.520;10.104;2023-12-20T05:16:48;15.93;;;3.25;;
22270;SDS011;11304;53.520;10.104;2023-12-20T05:19:14;15.57;;;3.45;;
22270;SDS011;11304;53.520;10.104;2023-12-20T05:21:40;21.45;;;3.60;;
22270;SDS011;11304;53.520;10.104;2023-12-20T05:24:06;12.93;;;2.38;;
22270;SDS011;11304;53.520;10.104;2023-12-20T05:26:33;13.73;;;3.00;;
22270;SDS011;11304;53.520;10.104;2023-12-20T05:28:59;19.42;;;2.85;;
22270;SDS011;11304;53.520;10.104;2023-12-20T05:31:25;16.13;;;3.47;;
22270;SDS011;11304;53.520;10.104;2023-12-20T05:33:51;14.30;;;3.17;;
22270;SDS011;11304;53.520;10.104;2023-12-20T05:36:17;15.18;;;3.60;;
22270;SDS011;11304;53.520;10.104;2023-12-20T05:38:43;11.90;;;3.20;;
22270;SDS011;11304;53.520;10.104;2023-12-20T05:41:09;19.27;;;3.72;;
22270;SDS011;11304;53.520;10.104;2023-12-20T05:43:36;19.98;;;3.55;;
22270;SDS011;11304;53.520;10.104;2023-12-20T05:46:02;18.25;;;3.33;;
22270;SDS011;11304;53.520;10.104;2023-12-20T05:48:32;16.42;;;3.10;;
22270;SDS011;11304;53.520;10.104;2023-12-20T05:50:58;20.90;;;3.72;;
22270;SDS011;11304;53.520;10.104;2023-12-20T05:53:24;18.67;;;3.17;;
22270;SDS011;11304;53.520;10.104;2023-12-20T05:55:50;17.83;;;3.03;;
22270;SDS011;11304;53.520;10.104;2023-12-20T05:58:16;18.00;;;2.90;;
22270;SDS011;11304;53.520;10.104;2023-12-20T06:00:42;20.52;;;3.15;;
22270;SDS011;11304;53.520;10.104;2023-12-20T06:03:08;14.90;;;2.60;;
22270;SDS011;11304;53.520;10.104;2023-12-20T06:05:35;19.40;;;3.28;;
22270;SDS011;11304;53.520;10.104;2023-12-20T06:08:01;16.77;;;3.13;;
22270;SDS011;11304;53.520;10.104;2023-12-20T06:10:28;17.95;;;3.13;;
22270;SDS011;11304;53.520;10.104;2023-12-20T06:12:54;19.92;;;3.17;;
22270;SDS011;11304;53.520;10.104;2023-12-20T06:15:21;16.17;;;3.15;;
22270;SDS011;11304;53.520;10.104;2023-12-20T06:17:47;17.23;;;3.08;;
22270;SDS011;11304;53.520;10.104;2023-12-20T06:20:13;13.90;;;2.40;;
22270;SDS011;11304;53.520;10.104;2023-12-20T06:22:39;17.13;;;3.67;;
22270;SDS011;11304;53.520;10.104;2023-12-20T06:25:05;12.82;;;2.90;;
22270;SDS011;11304;53.520;10.104;2023-12-20T06:27:32;22.48;;;2.97;;
22270;SDS011;11304;53.520;10.104;2023-12-20T06:29:58;15.05;;;2.92;;
22270;SDS011;11304;53.520;10.104;2023-12-20T06:32:24;15.48;;;3.20;;
22270;SDS011;11304;53.520;10.104;2023-12-20T06:34:50;18.58;;;2.85;;
22270;SDS011;11304;53.520;10.104;2023-12-20T06:37:16;19.35;;;2.95;;
22270;SDS011;11304;53.520;10.104;2023-12-20T06:39:42;14.32;;;2.40;;
22270;SDS011;11304;53.520;10.104;2023-12-20T06:42:08;20.13;;;3.50;;
22270;SDS011;11304;53.520;10.104;2023-12-20T06:44:34;21.17;;;2.85;;
22270;SDS011;11304;53.520;10.104;2023-12-20T06:47:01;14.93;;;2.90;;
22270;SDS011;11304;53.520;10.104;2023-12-20T06:49:28;14.48;;;3.20;;
22270;SDS011;11304;53.520;10.104;2023-12-20T06:51:54;19.02;;;3.08;;
22270;SDS011;11304;53.520;10.104;2023-12-20T06:54:20;18.00;;;3.03;;
22270;SDS011;11304;53.520;10.104;2023-12-20T06:56:46;18.67;;;3.05;;
22270;SDS011;11304;53.520;10.104;2023-12-20T06:59:12;14.20;;;2.47;;
22270;SDS011;11304;53.520;10.104;2023-12-20T07:01:38;18.20;;;3.03;;
22270;SDS011;11304;53.520;10.104;2023-12-20T07:04:04;16.35;;;3.00;;
22270;SDS011;11304;53.520;10.104;2023-12-20T07:06:30;15.00;;;3.00;;
22270;SDS011;11304;53.520;10.104;2023-12-20T07:08:56;14.30;;;2.67;;
22270;SDS011;11304;53.520;10.104;2023-12-20T07:11:22;15.85;;;3.30;;
22270;SDS011;11304;53.520;10.104;2023-12-20T07:13:49;18.45;;;2.80;;
22270;SDS011;11304;53.520;10.104;2023-12-20T07:16:15;21.52;;;3.20;;
22270;SDS011;11304;53.520;10.104;2023-12-20T07:18:41;15.57;;;2.75;;
22270;SDS011;11304;53.520;10.104;2023-12-20T07:21:07;17.83;;;3.15;;
22270;SDS011;11304;53.520;10.104;2023-12-20T07:23:33;12.73;;;2.85;;
22270;SDS011;11304;53.520;10.104;2023-12-20T07:25:59;15.82;;;2.90;;
22270;SDS011;11304;53.520;10.104;2023-12-20T07:28:25;24.30;;;3.40;;
22270;SDS011;11304;53.520;10.104;2023-12-20T07:30:51;16.00;;;3.20;;
22270;SDS011;11304;53.520;10.104;2023-12-20T07:33:18;15.90;;;3.25;;
22270;SDS011;11304;53.520;10.104;2023-12-20T07:35:44;17.30;;;3.53;;
22270;SDS011;11304;53.520;10.104;2023-12-20T07:38:10;23.52;;;3.60;;
22270;SDS011;11304;53.520;10.104;2023-12-20T07:40:37;22.50;;;3.70;;
22270;SDS011;11304;53.520;10.104;2023-12-20T07:43:04;20.60;;;3.15;;
22270;SDS011;11304;53.520;10.104;2023-12-20T07:45:30;20.45;;;3.58;;
22270;SDS011;11304;53.520;10.104;2023-12-20T07:47:56;19.58;;;2.85;;
22270;SDS011;11304;53.520;10.104;2023-12-20T07:50:22;14.48;;;2.78;;
22270;SDS011;11304;53.520;10.104;2023-12-20T07:52:48;18.70;;;3.50;;
22270;SDS011;11304;53.520;10.104;2023-12-20T07:55:14;23.30;;;3.97;;
22270;SDS011;11304;53.520;10.104;2023-12-20T07:57:40;27.00;;;3.33;;
22270;SDS011;11304;53.520;10.104;2023-12-20T08:00:06;18.45;;;3.45;;
22270;SDS011;11304;53.520;10.104;2023-12-20T08:02:33;23.20;;;4.18;;
22270;SDS011;11304;53.520;10.104;2023-12-20T08:04:59;16.10;;;3.22;;
22270;SDS011;11304;53.520;10.104;2023-12-20T08:07:25;20.90;;;3.33;;
22270;SDS011;11304;53.520;10.104;2023-12-20T08:09:51;18.63;;;3.35;;
22270;SDS011;11304;53.520;10.104;2023-12-20T08:12:18;24.23;;;3.65;;
22270;SDS011;11304;53.520;10.104;2023-12-20T08:14:44;26.25;;;4.15;;
22270;SDS011;11304;53.520;10.104;2023-12-20T08:17:10;20.67;;;3.72;;
22270;SDS011;11304;53.520;10.104;2023-12-20T08:19:36;18.92;;;4.03;;
22270;SDS011;11304;53.520;10.104;2023-12-20T08:22:02;17.38;;;3.63;;
22270;SDS011;11304;53.520;10.104;2023-12-20T08:24:29;25.05;;;3.80;;
22270;SDS011;11304;53.520;10.104;2023-12-20T08:26:55;18.00;;;3.83;;
22270;SDS011;11304;53.520;10.104;2023-12-20T08:29:21;17.70;;;2.95;;
22270;SDS011;11304;53.520;10.104;2023-12-20T08:31:51;20.38;;;3.10;;
22270;SDS011;11304;53.520;10.104;2023-12-20T08:34:17;22.30;;;4.03;;
22270;SDS011;11304;53.520;10.104;2023-12-20T08:36:43;18.20;;;3.40;;
22270;SDS011;11304;53.520;10.104;2023-12-20T08:39:09;18.88;;;3.28;;
22270;SDS011;11304;53.520;10.104;2023-12-20T08:41:35;19.55;;;3.67;;
22270;SDS011;11304;53.520;10.104;2023-12-20T08:44:02;25.73;;;4.03;;
22270;SDS011;11304;53.520;10.104;2023-12-20T08:46:28;17.08;;;3.38;;
22270;SDS011;11304;53.520;10.104;2023-12-20T08:48:55;21.13;;;3.55;;
22270;SDS011;11304;53.520;10.104;2023-12-20T08:51:21;17.23;;;3.30;;
22270;SDS011;11304;53.520;10.104;2023-12-20T08:53:48;22.05;;;3.95;;
22270;SDS011;11304;53.520;10.104;2023-12-20T08:56:15;18.85;;;3.47;;
22270;SDS011;11304;53.520;10.104;2023-12-20T08:58:41;20.15;;;3.88;;
22270;SDS011;11304;53.520;10.104;2023-12-20T09:01:07;19.25;;;3.25;;
22270;SDS011;11304;53.520;10.104;2023-12-20T09:03:34;15.68;;;2.88;;
22270;SDS011;11304;53.520;10.104;2023-12-20T09:06:00;15.75;;;3.20;;
22270;SDS011;11304;53.520;10.104;2023-12-20T09:08:26;12.25;;;3.10;;
22270;SDS011;11304;53.520;10.104;2023-12-20T09:10:52;13.60;;;3.03;;
22270;SDS011;11304;53.520;10.104;2023-12-20T09:13:18;14.98;;;2.20;;
22270;SDS011;11304;53.520;10.104;2023-12-20T09:15:45;16.08;;;2.50;;
22270;SDS011;11304;53.520;10.104;2023-12-20T09:18:11;10.45;;;2.42;;
22270;SDS011;11304;53.520;10.104;2023-12-20T09:20:37;10.68;;;2.03;;
22270;SDS011;11304;53.520;10.104;2023-12-20T09:23:04;12.63;;;2.55;;
22270;SDS011;11304;53.520;10.104;2023-12-20T09:25:30;11.85;;;2.58;;
22270;SDS011;11304;53.520;10.104;2023-12-20T09:27:56;12.32;;;1.63;;
22270;SDS011;11304;53.520;10.104;2023-12-20T09:30:22;7.28;;;1.75;;
22270;SDS011;11304;53.520;10.104;2023-12-20T09:32:48;6.97;;;1.55;;
22270;SDS011;11304;53.520;10.104;2023-12-20T09:35:14;5.60;;;1.30;;
22270;SDS011;11304;53.520;10.104;2023-12-20T09:37:41;8.70;;;1.40;;
22270;SDS011;11304;53.520;10.104;2023-12-20T09:40:10;6.85;;;1.27;;
22270;SDS011;11304;53.520;10.104;2023-12-20T09:42:59;5.60;;;1.50;;
22270;SDS011;11304;53.520;10.104;2023-12-20T09:45:23;7.78;;;1.05;;
22270;SDS011;11304;53.520;10.104;2023-12-20T09:47:50;3.92;;;1.40;;
22270;SDS011;11304;53.520;10.104;2023-12-20T09:50:18;5.50;;;0.95;;
22270;SDS011;11304;53.520;10.104;2023-12-20T09:52:44;6.82;;;1.10;;
22270;SDS011;11304;53.520;10.104;2023-12-20T09:55:11;6.15;;;1.17;;
22270;SDS011;11304;53.520;10.104;2023-12-20T09:57:38;5.47;;;1.25;;
22270;SDS011;11304;53.520;10.104;2023-12-20T10:00:05;4.43;;;1.10;;
22270;SDS011;11304;53.520;10.104;2023-12-20T10:02:31;3.78;;;1.20;;
22270;SDS011;11304;53.520;10.104;2023-12-20T10:04:59;4.60;;;1.05;;
22270;SDS011;11304;53.520;10.104;2023-12-20T10:07:26;2.28;;;0.60;;
22270;SDS011;11304;53.520;10.104;2023-12-20T10:09:53;4.65;;;0.82;;
22270;SDS011;11304;53.520;10.104;2023-12-20T10:12:21;3.78;;;0.70;;
22270;SDS011;11304;53.520;10.104;2023-12-20T10:14:47;2.90;;;0.90;;
22270;SDS011;11304;53.520;10.104;2023-12-20T10:17:13;5.15;;;0.65;;
22270;SDS011;11304;53.520;10.104;2023-12-20T10:19:39;4.38;;;0.80;;
22270;SDS011;11304;53.520;10.104;2023-12-20T10:22:05;2.97;;;0.98;;
22270;SDS011;11304;53.520;10.104;2023-12-20T10:24:31;7.80;;;0.90;;
22270;SDS011;11304;53.520;10.104;2023-12-20T10:27:04;4.35;;;1.17;;
22270;SDS011;11304;53.520;10.104;2023-12-20T10:29:36;4.50;;;1.27;;
22270;SDS011;11304;53.520;10.104;2023-12-20T10:32:22;4.95;;;1.23;;
22270;SDS011;11304;53.520;10.104;2023-12-20T10:34:51;4.85;;;1.02;;
22270;SDS011;11304;53.520;10.104;2023-12-20T10:37:17;3.20;;;0.90;;
22270;SDS011;11304;53.520;10.104;2023-12-20T10:39:43;5.75;;;0.80;;
22270;SDS011;11304;53.520;10.104;2023-12-20T10:42:11;7.85;;;1.00;;
22270;SDS011;11304;53.520;10.104;2023-12-20T10:44:37;6.97;;;0.93;;
22270;SDS011;11304;53.520;10.104;2023-12-20T10:47:04;5.95;;;1.20;;
22270;SDS011;11304;53.520;10.104;2023-12-20T10:49:31;7.68;;;1.40;;
22270;SDS011;11304;53.520;10.104;2023-12-20T10:51:57;5.40;;;0.85;;
22270;SDS011;11304;53.520;10.104;2023-12-20T10:54:25;5.78;;;1.13;;
22270;SDS011;11304;53.520;10.104;2023-12-20T10:56:51;7.72;;;1.75;;
22270;SDS011;11304;53.520;10.104;2023-12-20T10:59:19;7.88;;;1.00;;
22270;SDS011;11304;53.520;10.104;2023-12-20T11:01:47;13.27;;;1.67;;
22270;SDS011;11304;53.520;10.104;2023-12-20T11:04:15;6.88;;;1.45;;
22270;SDS011;11304;53.520;10.104;2023-12-20T11:14:51;9.45;;;1.65;;
22270;SDS011;11304;53.520;10.104;2023-12-20T11:17:16;18.85;;;1.58;;
22270;SDS011;11304;53.520;10.104;2023-12-20T11:20:03;7.05;;;1.10;;
22270;SDS011;11304;53.520;10.104;2023-12-20T11:22:32;16.33;;;1.80;;
22270;SDS011;11304;53.520;10.104;2023-12-20T11:25:05;7.93;;;1.30;;
22270;SDS011;11304;53.520;10.104;2023-12-20T11:27:35;6.40;;;1.08;;
22270;SDS011;11304;53.520;10.104;2023-12-20T11:30:02;5.45;;;1.30;;
22270;SDS011;11304;53.520;10.104;2023-12-20T11:32:31;17.48;;;2.05;;
22270;SDS011;11304;53.520;10.104;2023-12-20T11:37:38;7.90;;;2.00;;
22270;SDS011;11304;53.520;10.104;2023-12-20T11:40:13;11.48;;;1.75;;
22270;SDS011;11304;53.520;10.104;2023-12-20T11:42:40;15.52;;;1.80;;
22270;SDS011;11304;53.520;10.104;2023-12-20T11:45:09;16.95;;;2.15;;
22270;SDS011;11304;53.520;10.104;2023-12-20T11:50:01;15.02;;;2.47;;
22270;SDS011;11304;53.520;10.104;2023-12-20T11:52:29;7.82;;;1.85;;
22270;SDS011;11304;53.520;10.104;2023-12-20T11:54:55;13.23;;;1.95;;
22270;SDS011;11304;53.520;10.104;2023-12-20T11:57:21;13.57;;;2.28;;
22270;SDS011;11304;53.520;10.104;2023-12-20T11:59:47;10.77;;;1.98;;
22270;SDS011;11304;53.520;10.104;2023-12-20T12:02:13;15.65;;;2.25;;
22270;SDS011;11304;53.520;10.104;2023-12-20T12:04:42;15.27;;;2.50;;
22270;SDS011;11304;53.520;10.104;2023-12-20T12:07:09;17.13;;;2.75;;
22270;SDS011;11304;53.520;10.104;2023-12-20T12:09:35;13.65;;;2.13;;
22270;SDS011;11304;53.520;10.104;2023-12-20T12:12:01;13.10;;;2.10;;
22270;SDS011;11304;53.520;10.104;2023-12-20T12:14:28;11.75;;;2.85;;
22270;SDS011;11304;53.520;10.104;2023-12-20T12:16:54;14.45;;;2.47;;
22270;SDS011;11304;53.520;10.104;2023-12-20T12:19:23;19.55;;;2.97;;
22270;SDS011;11304;53.520;10.104;2023-12-20T12:22:11;15.82;;;2.85;;
22270;SDS011;11304;53.520;10.104;2023-12-20T12:24:41;17.83;;;2.30;;
22270;SDS011;11304;53.520;10.104;2023-12-20T12:27:07;10.23;;;2.60;;
22270;SDS011;11304;53.520;10.104;2023-12-20T12:29:37;15.73;;;2.35;;
22270;SDS011;11304;53.520;10.104;2023-12-20T12:32:07;14.88;;;3.20;;
22270;SDS011;11304;53.520;10.104;2023-12-20T12:34:33;19.58;;;2.67;;
22270;SDS011;11304;53.520;10.104;2023-12-20T12:37:00;12.35;;;2.53;;
22270;SDS011;11304;53.520;10.104;2023-12-20T12:39:26;19.83;;;2.67;;
22270;SDS011;11304;53.520;10.104;2023-12-20T12:41:54;15.05;;;2.50;;
22270;SDS011;11304;53.520;10.104;2023-12-20T12:44:20;13.02;;;2.60;;
22270;SDS011;11304;53.520;10.104;2023-12-20T12:46:48;10.33;;;2.20;;
22270;SDS011;11304;53.520;10.104;2023-12-20T12:49:16;18.13;;;2.70;;
22270;SDS011;11304;53.520;10.104;2023-12-20T12:51:42;14.32;;;2.47;;
22270;SDS011;11304;53.520;10.104;2023-12-20T12:54:08;14.55;;;2.80;;
22270;SDS011;11304;53.520;10.104;2023-12-20T12:56:35;14.95;;;3.08;;
22270;SDS011;11304;53.520;10.104;2023-12-20T12:59:01;16.33;;;2.85;;
22270;SDS011;11304;53.520;10.104;2023-12-20T13:01:28;13.00;;;2.00;;
22270;SDS011;11304;53.520;10.104;2023-12-20T13:03:54;13.88;;;2.50;;
22270;SDS011;11304;53.520;10.104;2023-12-20T13:06:20;14.68;;;2.10;;
22270;SDS011;11304;53.520;10.104;2023-12-20T13:08:46;13.43;;;2.33;;
22270;SDS011;11304;53.520;10.104;2023-12-20T13:11:12;20.60;;;2.88;;
22270;SDS011;11304;53.520;10.104;2023-12-20T13:13:38;18.13;;;3.00;;
22270;SDS011;11304;53.520;10.104;2023-12-20T13:16:04;15.35;;;2.67;;
22270;SDS011;11304;53.520;10.104;2023-12-20T13:18:31;16.02;;;3.15;;
22270;SDS011;11304;53.520;10.104;2023-12-20T13:20:57;16.20;;;2.80;;
22270;SDS011;11304;53.520;10.104;2023-12-20T13:23:23;15.52;;;2.72;;
22270;SDS011;11304;53.520;10.104;2023-12-20T13:25:49;23.20;;;3.47;;
22270;SDS011;11304;53.520;10.104;2023-12-20T13:28:15;19.35;;;3.38;;
22270;SDS011;11304;53.520;10.104;2023-12-20T13:30:42;14.93;;;2.60;;
22270;SDS011;11304;53.520;10.104;2023-12-20T13:33:08;18.85;;;3.05;;
22270;SDS011;11304;53.520;10.104;2023-12-20T13:35:35;18.27;;;2.90;;
22270;SDS011;11304;53.520;10.104;2023-12-20T13:38:01;20.08;;;3.38;;
22270;SDS011;11304;53.520;10.104;2023-12-20T13:40:27;14.68;;;2.95;;
22270;SDS011;11304;53.520;10.104;2023-12-20T13:42:53;22.15;;;3.63;;
22270;SDS011;11304;53.520;10.104;2023-12-20T13:45:20;19.52;;;3.55;;
22270;SDS011;11304;53.520;10.104;2023-12-20T13:47:46;19.55;;;3.30;;
22270;SDS011;11304;53.520;10.104;2023-12-20T13:50:12;13.35;;;3.15;;
22270;SDS011;11304;53.520;10.104;2023-12-20T13:52:38;21.25;;;3.45;;
22270;SDS011;11304;53.520;10.104;2023-12-20T13:55:04;22.85;;;4.30;;
22270;SDS011;11304;53.520;10.104;2023-12-20T13:57:32;20.73;;;3.03;;
22270;SDS011;11304;53.520;10.104;2023-12-20T13:59:59;25.95;;;4.28;;
22270;SDS011;11304;53.520;10.104;2023-12-20T14:02:25;17.30;;;3.75;;
22270;SDS011;11304;53.520;10.104;2023-12-20T14:04:52;19.02;;;3.50;;
22270;SDS011;11304;53.520;10.104;2023-12-20T14:07:18;24.55;;;4.30;;
22270;SDS011;11304;53.520;10.104;2023-12-20T14:09:44;25.90;;;4.38;;
22270;SDS011;11304;53.520;10.104;2023-12-20T14:12:11;28.95;;;4.50;;
22270;SDS011;11304;53.520;10.104;2023-12-20T14:14:37;23.10;;;5.22;;
22270;SDS011;11304;53.520;10.104;2023-12-20T14:17:03;28.00;;;5.47;;
22270;SDS011;11304;53.520;10.104;2023-12-20T14:19:31;22.23;;;4.07;;
22270;SDS011;11304;53.520;10.104;2023-12-20T14:21:57;25.30;;;4.55;;
22270;SDS011;11304;53.520;10.104;2023-12-20T14:24:26;23.77;;;4.07;;
22270;SDS011;11304;53.520;10.104;2023-12-20T14:26:52;30.08;;;5.03;;
22270;SDS011;11304;53.520;10.104;2023-12-20T14:29:19;24.08;;;4.25;;
22270;SDS011;11304;53.520;10.104;2023-12-20T14:31:45;28.77;;;5.47;;